createdAt,value
2019-01-28T00:05:02.307Z,100.00
2019-01-28T00:07:50.640Z,100.00
2019-01-28T00:10:19.946Z,100.00
2019-01-28T00:15:37.682Z,100.00
2019-01-28T00:18:07.010Z,100.00
2019-01-28T00:20:36.496Z,100.00
2019-01-28T00:23:45.127Z,100.00
2019-01-28T00:26:14.536Z,100.00
2019-01-28T00:28:43.819Z,100.00
2019-01-28T00:31:13.396Z,100.00
2019-01-28T00:33:42.721Z,100.00
2019-01-28T00:36:12.363Z,100.00
2019-01-28T00:38:41.714Z,100.00
2019-01-28T00:41:11.246Z,100.00
2019-01-28T00:43:40.613Z,100.00
2019-01-28T00:46:10.354Z,100.00
2019-01-28T00:48:39.645Z,100.00
2019-01-28T00:51:09.029Z,100.00
2019-01-28T00:53:38.318Z,100.00
2019-01-28T00:56:08.019Z,100.00
2019-01-28T00:58:37.323Z,100.00
2019-01-28T01:01:06.875Z,100.00
2019-01-28T01:03:55.298Z,100.00
2019-01-28T01:06:24.570Z,100.00
2019-01-28T01:08:54.184Z,100.00
2019-01-28T01:11:23.497Z,100.00
2019-01-28T01:16:41.578Z,100.00
2019-01-28T01:19:10.846Z,100.00
2019-01-28T01:21:40.701Z,100.00
2019-01-28T01:24:10.016Z,100.00
2019-01-28T01:26:39.472Z,100.00
2019-01-28T01:29:08.763Z,100.00
2019-01-28T01:31:38.102Z,100.00
2019-01-28T01:34:07.380Z,100.00
2019-01-28T01:36:36.977Z,100.00
2019-01-28T01:39:08.508Z,100.00
2019-01-28T01:41:56.783Z,100.00
2019-01-28T01:44:26.387Z,100.00
2019-01-28T01:46:55.662Z,100.00
2019-01-28T01:49:25.371Z,100.00
2019-01-28T01:51:54.573Z,100.00
2019-01-28T01:54:24.098Z,100.00
2019-01-28T01:56:53.370Z,100.00
2019-01-28T01:59:22.958Z,100.00
2019-01-28T02:02:11.439Z,100.00
2019-01-28T02:04:40.802Z,100.00
2019-01-28T02:07:10.325Z,100.00
2019-01-28T02:09:39.610Z,100.00
2019-01-28T02:12:09.257Z,100.00
2019-01-28T02:19:47.635Z,100.00
2019-01-28T02:22:16.911Z,100.00
2019-01-28T02:24:46.245Z,100.00
2019-01-28T02:27:15.579Z,100.00
2019-01-28T02:29:44.863Z,100.00
2019-01-28T02:34:49.178Z,100.00
2019-01-28T02:37:37.515Z,100.00
2019-01-28T02:40:27.191Z,100.00
2019-01-28T02:42:56.707Z,100.00
2019-01-28T02:45:25.980Z,100.00
2019-01-28T02:47:55.383Z,100.00
2019-01-28T02:50:24.672Z,100.00
2019-01-28T02:52:54.222Z,100.00
2019-01-28T02:55:42.514Z,100.00
2019-01-28T02:58:11.859Z,100.00
2019-01-28T03:00:41.255Z,100.00
2019-01-28T03:03:10.537Z,99.98
2019-01-28T03:05:40.275Z,100.00
2019-01-28T03:08:09.548Z,99.92
2019-01-28T03:10:39.256Z,99.89
2019-01-28T03:13:08.533Z,99.87
2019-01-28T03:18:26.857Z,99.66
2019-01-28T03:20:56.141Z,99.61
2019-01-28T03:26:02.885Z,99.60
2019-01-28T03:28:32.184Z,99.62
2019-01-28T03:31:01.762Z,99.58
2019-01-28T03:33:31.043Z,99.62
2019-01-28T03:36:00.415Z,99.63
2019-01-28T03:38:29.711Z,99.74
2019-01-28T03:40:59.310Z,99.72
2019-01-28T03:43:28.599Z,99.65
2019-01-28T03:45:58.130Z,99.70
2019-01-28T03:48:27.427Z,99.64
2019-01-28T03:50:57.045Z,99.86
2019-01-28T03:53:26.611Z,99.80
2019-01-28T03:55:56.260Z,99.85
2019-01-28T03:58:25.572Z,99.80
2019-01-28T04:00:55.200Z,99.94
2019-01-28T04:03:24.499Z,99.94
2019-01-28T04:05:54.090Z,99.91
2019-01-28T04:08:23.390Z,100.00
2019-01-28T04:10:53.041Z,100.00
2019-01-28T04:13:22.327Z,100.00
2019-01-28T04:15:51.735Z,100.00
2019-01-28T04:18:21.030Z,100.00
2019-01-28T04:21:09.361Z,99.96
2019-01-28T04:23:57.691Z,100.00
2019-01-28T04:26:45.950Z,100.00
2019-01-28T04:29:15.257Z,99.98
2019-01-28T04:31:44.530Z,100.00
2019-01-28T04:34:13.993Z,100.00
2019-01-28T04:36:43.235Z,100.00
2019-01-28T04:39:12.584Z,100.00
2019-01-28T04:42:00.903Z,100.00
2019-01-28T04:44:30.212Z,100.00
2019-01-28T04:46:59.528Z,100.00
2019-01-28T04:49:28.834Z,100.00
2019-01-28T04:51:58.124Z,100.00
2019-01-28T04:54:27.632Z,100.00
2019-01-28T04:56:56.988Z,100.00
2019-01-28T04:59:26.262Z,100.00
2019-01-28T05:01:55.608Z,100.00
2019-01-28T05:04:24.902Z,100.00
2019-01-28T05:06:54.174Z,100.00
2019-01-28T05:09:42.454Z,100.00
2019-01-28T05:12:11.974Z,100.00
2019-01-28T05:14:41.261Z,100.00
2019-01-28T05:17:10.748Z,100.00
2019-01-28T05:19:40.149Z,100.00
2019-01-28T05:22:09.539Z,100.00
2019-01-28T05:24:38.854Z,100.00
2019-01-28T05:27:08.382Z,100.00
2019-01-28T05:29:37.702Z,100.00
2019-01-28T05:32:07.345Z,100.00
2019-01-28T05:34:36.639Z,100.00
2019-01-28T05:37:05.988Z,100.00
2019-01-28T05:39:35.294Z,100.00
2019-01-28T05:42:04.765Z,100.00
2019-01-28T05:47:22.418Z,100.00
2019-01-28T05:49:52.036Z,100.00
2019-01-28T05:52:21.348Z,100.00
2019-01-28T05:54:50.928Z,100.00
2019-01-28T05:57:20.213Z,100.00
2019-01-28T05:59:49.790Z,100.00
2019-01-28T06:02:19.057Z,100.00
2019-01-28T06:04:48.591Z,100.00
2019-01-28T06:07:37.037Z,100.00
2019-01-28T06:10:26.257Z,100.00
2019-01-28T06:12:55.545Z,100.00
2019-01-28T06:15:25.133Z,100.00
2019-01-28T06:17:54.437Z,100.00
2019-01-28T06:20:24.213Z,100.00
2019-01-28T06:22:56.688Z,100.00
2019-01-28T06:25:27.484Z,100.00
2019-01-28T06:27:56.970Z,100.00
2019-01-28T06:30:28.691Z,100.00
2019-01-28T06:36:09.132Z,100.00
2019-01-28T06:38:38.554Z,100.00
2019-01-28T06:41:07.901Z,100.00
2019-01-28T06:46:57.083Z,100.00
2019-01-28T06:49:45.660Z,100.00
2019-01-28T06:52:26.574Z,100.00
2019-01-28T06:54:56.520Z,100.00
2019-01-28T06:57:28.164Z,100.00
2019-01-28T06:59:57.514Z,100.00
2019-01-28T07:05:23.030Z,99.93
2019-01-28T07:07:52.391Z,99.91
2019-01-28T07:10:21.702Z,99.90
2019-01-28T07:12:51.239Z,99.87
2019-01-28T07:15:59.907Z,99.73
2019-01-28T07:18:29.439Z,99.81
2019-01-28T07:21:17.895Z,99.75
2019-01-28T07:23:47.198Z,99.78
2019-01-28T07:26:16.825Z,99.70
2019-01-28T07:31:21.026Z,99.67
2019-01-28T07:33:50.351Z,99.67
2019-01-28T07:36:19.650Z,99.64
2019-01-28T07:38:49.058Z,99.51
2019-01-28T07:41:18.366Z,99.48
2019-01-28T07:43:47.976Z,99.50
2019-01-28T07:46:36.313Z,99.44
2019-01-28T07:49:05.808Z,99.50
2019-01-28T07:51:35.218Z,99.47
2019-01-28T07:54:25.229Z,99.41
2019-01-28T07:56:54.535Z,99.40
2019-01-28T08:00:03.213Z,99.39
2019-01-28T08:02:32.504Z,99.30
2019-01-28T08:05:02.056Z,99.34
2019-01-28T08:07:31.423Z,99.30
2019-01-28T08:10:00.992Z,99.40
2019-01-28T08:12:50.050Z,99.30
2019-01-28T08:15:20.693Z,99.36
2019-01-28T08:17:50.190Z,99.39
2019-01-28T08:20:20.088Z,99.33
2019-01-28T08:22:49.476Z,99.45
2019-01-28T08:25:58.697Z,99.40
2019-01-28T08:28:28.294Z,99.52
2019-01-28T08:30:57.588Z,99.46
2019-01-28T08:33:27.000Z,99.60
2019-01-28T08:35:56.280Z,99.55
2019-01-28T08:38:25.583Z,99.49
2019-01-28T08:40:54.905Z,99.67
2019-01-28T08:43:24.212Z,99.62
2019-01-28T08:45:53.536Z,99.61
2019-01-28T08:48:22.855Z,99.77
2019-01-28T08:50:52.155Z,99.75
2019-01-28T08:53:21.576Z,99.81
2019-01-28T08:55:50.968Z,99.79
2019-01-28T08:58:20.274Z,99.98
2019-01-28T09:00:49.561Z,99.88
2019-01-28T09:03:37.840Z,99.86
2019-01-28T09:09:00.971Z,100.00
2019-01-28T09:11:30.355Z,100.00
2019-01-28T09:13:59.664Z,100.00
2019-01-28T09:16:29.087Z,100.00
2019-01-28T09:18:58.377Z,100.00
2019-01-28T09:21:28.517Z,100.00
2019-01-28T09:23:57.875Z,99.96
2019-01-28T09:26:27.242Z,99.96
2019-01-28T09:28:56.687Z,99.93
2019-01-28T09:31:26.249Z,100.00
2019-01-28T09:34:14.468Z,100.00
2019-01-28T09:36:43.758Z,100.00
2019-01-28T09:39:32.124Z,100.00
2019-01-28T09:42:01.623Z,100.00
2019-01-28T09:44:30.989Z,100.00
2019-01-28T09:47:00.298Z,100.00
2019-01-28T09:49:30.132Z,100.00
2019-01-28T09:52:18.460Z,100.00
2019-01-28T09:54:48.572Z,100.00
2019-01-28T09:57:17.957Z,100.00
2019-01-28T09:59:47.351Z,100.00
2019-01-28T10:02:16.642Z,100.00
2019-01-28T10:04:46.085Z,100.00
2019-01-28T10:07:15.402Z,100.00
2019-01-28T10:09:44.753Z,100.00
2019-01-28T10:12:14.097Z,100.00
2019-01-28T10:15:22.810Z,100.00
2019-01-28T10:26:52.276Z,100.00
2019-01-28T10:29:43.011Z,100.00
2019-01-28T10:32:13.477Z,100.00
2019-01-28T10:34:45.307Z,100.00
2019-01-28T10:37:15.054Z,100.00
2019-01-28T10:39:45.077Z,100.00
2019-01-28T10:42:17.670Z,100.00
2019-01-28T10:44:54.838Z,100.00
2019-01-28T10:47:24.386Z,100.00
2019-01-28T10:49:54.377Z,100.00
2019-01-28T10:52:24.218Z,100.00
2019-01-28T10:57:54.197Z,99.96
2019-01-28T11:03:27.246Z,99.93
2019-01-28T11:06:01.393Z,99.93
2019-01-28T11:08:49.974Z,99.84
2019-01-28T11:11:20.070Z,99.97
2019-01-28T11:14:28.718Z,99.81
2019-01-28T11:16:58.465Z,99.58
2019-01-28T11:19:28.215Z,99.61
2019-01-28T11:22:36.904Z,99.50
2019-01-28T11:25:09.502Z,99.55
2019-01-28T11:31:00.028Z,99.46
2019-01-28T11:33:49.540Z,99.24
2019-01-28T11:39:17.388Z,99.74
2019-01-28T11:41:49.194Z,99.71
2019-01-28T11:44:37.989Z,99.73
2019-01-28T11:47:07.546Z,99.78
2019-01-28T11:49:37.436Z,99.93
2019-01-28T11:52:06.792Z,99.95
2019-01-28T11:54:36.759Z,99.83
2019-01-28T11:57:25.349Z,99.75
2019-01-28T12:03:09.313Z,99.90
2019-01-28T12:05:38.853Z,99.84
2019-01-28T12:08:11.481Z,99.83
2019-01-28T12:10:41.072Z,99.91
2019-01-28T12:13:12.617Z,99.80
2019-01-28T12:15:44.345Z,99.79
2019-01-28T12:18:14.433Z,99.95
2019-01-28T12:20:44.726Z,100.00
2019-01-28T12:23:27.267Z,99.79
2019-01-28T12:28:57.876Z,100.00
2019-01-28T12:31:28.130Z,100.00
2019-01-28T12:34:00.647Z,100.00
2019-01-28T12:36:31.386Z,100.00
2019-01-28T12:39:01.588Z,100.00
2019-01-28T12:41:31.322Z,99.97
2019-01-28T12:46:36.293Z,100.00
2019-01-28T12:49:07.927Z,99.88
2019-01-28T12:54:15.468Z,100.00
2019-01-28T12:56:46.046Z,100.00
2019-01-28T12:59:34.710Z,100.00
2019-01-28T13:02:23.226Z,100.00
2019-01-28T13:04:53.072Z,100.00
2019-01-28T13:07:22.653Z,100.00
2019-01-28T13:09:52.672Z,100.00
2019-01-28T13:12:22.117Z,99.87
2019-01-28T13:14:51.730Z,99.98
2019-01-28T13:17:21.680Z,100.00
2019-01-28T13:19:53.620Z,100.00
2019-01-28T13:27:57.856Z,100.00
2019-01-28T13:30:34.285Z,100.00
2019-01-28T13:33:22.780Z,100.00
2019-01-28T13:35:52.475Z,99.88
2019-01-28T13:38:22.146Z,100.00
2019-01-28T13:40:51.511Z,100.00
2019-01-28T13:43:21.499Z,100.00
2019-01-28T13:45:59.535Z,100.00
2019-01-28T13:51:53.535Z,100.00
2019-01-28T13:57:15.317Z,100.00
2019-01-28T14:03:11.049Z,100.00
2019-01-28T14:08:29.597Z,100.00
2019-01-28T14:16:50.252Z,100.00
2019-01-28T14:19:19.776Z,100.00
2019-01-28T14:21:49.280Z,100.00
2019-01-28T14:24:19.155Z,100.00
2019-01-28T14:26:48.455Z,100.00
2019-01-28T14:29:18.194Z,100.00
2019-01-28T14:31:47.480Z,100.00
2019-01-28T14:34:16.828Z,100.00
2019-01-28T14:36:46.126Z,100.00
2019-01-28T14:39:34.469Z,100.00
2019-01-28T14:42:04.235Z,100.00
2019-01-28T14:44:33.532Z,100.00
2019-01-28T14:47:03.113Z,100.00
2019-01-28T14:49:32.572Z,100.00
2019-01-28T14:52:02.264Z,100.00
2019-01-28T14:54:31.546Z,100.00
2019-01-28T14:57:01.303Z,100.00
2019-01-28T14:59:30.585Z,100.00
2019-01-28T15:02:00.366Z,100.00
2019-01-28T15:04:29.795Z,100.00
2019-01-28T15:06:59.585Z,100.00
2019-01-28T15:09:31.472Z,100.00
2019-01-28T15:12:00.858Z,100.00
2019-01-28T15:14:49.236Z,100.00
2019-01-28T15:17:18.704Z,100.00
2019-01-28T15:19:50.796Z,100.00
2019-01-28T15:22:19.926Z,100.00
2019-01-28T15:24:49.486Z,100.00
2019-01-28T15:27:19.257Z,100.00
2019-01-28T15:29:48.608Z,100.00
2019-01-28T15:32:18.571Z,100.00
2019-01-28T15:34:47.941Z,100.00
2019-01-28T15:37:17.350Z,100.00
2019-01-28T15:39:46.643Z,100.00
2019-01-28T15:42:16.140Z,100.00
2019-01-28T15:45:11.220Z,100.00
2019-01-28T15:47:35.379Z,100.00
2019-01-28T15:50:10.505Z,100.00
2019-01-28T15:52:36.507Z,100.00
2019-01-28T15:55:28.820Z,100.00
2019-01-28T15:57:58.162Z,100.00
2019-01-28T16:00:29.444Z,100.00
2019-01-28T16:03:18.174Z,100.00
2019-01-28T16:05:47.478Z,100.00
2019-01-28T16:08:17.019Z,100.00
2019-01-28T16:10:46.347Z,100.00
2019-01-28T16:13:15.907Z,100.00
2019-01-28T16:18:41.445Z,100.00
2019-01-28T16:21:10.783Z,100.00
2019-01-28T16:23:40.174Z,100.00
2019-01-28T16:26:28.384Z,100.00
2019-01-28T16:28:57.793Z,100.00
2019-01-28T16:31:27.298Z,100.00
2019-01-28T16:34:15.860Z,100.00
2019-01-28T16:36:56.452Z,100.00
2019-01-28T16:39:26.107Z,100.00
2019-01-28T16:42:14.359Z,100.00
2019-01-28T16:44:43.699Z,100.00
2019-01-28T16:47:13.063Z,100.00
2019-01-28T16:49:42.377Z,100.00
2019-01-28T16:52:11.688Z,100.00
2019-01-28T16:54:41.094Z,100.00
2019-01-28T16:57:10.421Z,100.00
2019-01-28T16:59:39.828Z,100.00
2019-01-28T17:02:09.118Z,100.00
2019-01-28T17:04:38.409Z,100.00
2019-01-28T17:07:26.750Z,100.00
2019-01-28T17:13:10.301Z,100.00
2019-01-28T17:15:39.919Z,100.00
2019-01-28T17:18:09.347Z,100.00
2019-01-28T17:21:18.017Z,100.00
2019-01-28T17:23:47.343Z,100.00
2019-01-28T17:26:16.898Z,100.00
2019-01-28T17:28:46.184Z,100.00
2019-01-28T17:31:34.468Z,100.00
2019-01-28T17:34:04.145Z,100.00
2019-01-28T17:36:33.461Z,100.00
2019-01-28T17:44:15.220Z,100.00
2019-01-28T17:46:44.550Z,100.00
2019-01-28T17:49:16.325Z,100.00
2019-01-28T17:51:45.607Z,100.00
2019-01-28T17:54:15.196Z,100.00
2019-01-28T17:56:44.491Z,100.00
2019-01-28T17:59:13.965Z,100.00
2019-01-28T18:01:43.274Z,100.00
2019-01-28T18:04:12.613Z,100.00
2019-01-28T18:06:41.906Z,100.00
2019-01-28T18:09:11.274Z,100.00
2019-01-28T18:11:40.590Z,100.00
2019-01-28T18:14:10.043Z,100.00
2019-01-28T18:16:39.352Z,100.00
2019-01-28T18:19:08.947Z,100.00
2019-01-28T18:21:38.452Z,100.00
2019-01-28T18:24:07.927Z,100.00
2019-01-28T18:26:37.214Z,100.00
2019-01-28T18:29:06.718Z,100.00
2019-01-28T18:31:36.836Z,100.00
2019-01-28T18:34:07.190Z,100.00
2019-01-28T18:36:36.494Z,100.00
2019-01-28T18:39:47.376Z,100.00
2019-01-28T18:42:16.905Z,100.00
2019-01-28T18:44:46.187Z,100.00
2019-01-28T18:47:34.577Z,100.00
2019-01-28T18:52:43.456Z,100.00
2019-01-28T18:55:52.186Z,100.00
2019-01-28T18:58:40.510Z,100.00
2019-01-28T19:01:09.890Z,100.00
2019-01-28T19:03:39.199Z,100.00
2019-01-28T19:09:16.483Z,100.00
2019-01-28T19:11:51.004Z,100.00
2019-01-28T19:14:39.247Z,100.00
2019-01-28T19:17:27.436Z,100.00
2019-01-28T19:20:15.633Z,100.00
2019-01-28T19:22:45.135Z,100.00
2019-01-28T19:25:15.458Z,100.00
2019-01-28T19:27:44.805Z,100.00
2019-01-28T19:33:15.736Z,100.00
2019-01-28T19:35:45.044Z,100.00
2019-01-28T19:38:14.503Z,100.00
2019-01-28T19:40:43.834Z,99.80
2019-01-28T19:43:13.388Z,99.78
2019-01-28T19:45:42.699Z,99.63
2019-01-28T19:48:12.188Z,99.19
2019-01-28T19:50:41.467Z,99.31
2019-01-28T19:53:10.939Z,98.91
2019-01-28T19:55:40.320Z,99.37
2019-01-28T19:58:09.757Z,98.68
2019-01-28T20:00:39.102Z,98.76
2019-01-28T20:03:10.445Z,98.85
2019-01-28T20:05:39.849Z,98.94
2019-01-28T20:08:09.313Z,98.36
2019-01-28T20:10:38.668Z,98.71
2019-01-28T20:13:08.367Z,98.04
2019-01-28T20:18:12.410Z,98.21
2019-01-28T20:20:42.231Z,98.19
2019-01-28T20:23:11.523Z,97.63
2019-01-28T20:28:29.610Z,98.01
2019-01-28T20:30:58.921Z,97.57
2019-01-28T20:33:28.414Z,97.59
2019-01-28T20:35:57.840Z,97.49
2019-01-28T20:38:27.361Z,97.91
2019-01-28T20:41:15.758Z,97.13
2019-01-28T20:43:45.111Z,96.98
2019-01-28T20:46:14.686Z,97.11
2019-01-28T20:48:44.033Z,97.20
2019-01-28T20:54:02.056Z,97.55
2019-01-28T20:56:31.418Z,97.31
2019-01-28T20:59:01.110Z,96.98
2019-01-28T21:01:30.544Z,97.05
2019-01-28T21:04:00.330Z,97.14
2019-01-28T21:06:48.984Z,96.83
2019-01-28T21:09:18.312Z,96.75
2019-01-28T21:12:06.659Z,97.50
2019-01-28T21:14:36.148Z,96.74
2019-01-28T21:17:06.053Z,96.72
2019-01-28T21:22:29.718Z,96.85
2019-01-28T21:24:59.061Z,96.78
2019-01-28T21:27:47.480Z,96.87
2019-01-28T21:30:35.942Z,96.84
2019-01-28T21:36:12.814Z,96.60
2019-01-28T21:39:01.257Z,96.82
2019-01-28T21:41:30.934Z,96.39
2019-01-28T21:44:00.271Z,96.73
2019-01-28T21:46:29.813Z,96.55
2019-01-28T21:48:59.114Z,96.37
2019-01-28T21:51:28.451Z,96.58
2019-01-28T21:53:57.808Z,96.84
2019-01-28T21:56:27.337Z,97.04
2019-01-28T21:58:56.645Z,97.11
2019-01-28T22:01:26.309Z,96.63
2019-01-28T22:04:14.913Z,97.08
2019-01-28T22:06:44.189Z,96.58
2019-01-28T22:09:14.103Z,96.82
2019-01-28T22:11:43.387Z,96.51
2019-01-28T22:17:01.529Z,96.42
2019-01-28T22:19:30.853Z,96.68
2019-01-28T22:22:00.361Z,96.66
2019-01-28T22:24:49.036Z,96.46
2019-01-28T22:27:18.337Z,96.79
2019-01-28T22:29:47.986Z,96.91
2019-01-28T22:32:17.315Z,96.78
2019-01-28T22:34:47.988Z,96.49
2019-01-28T22:37:18.188Z,97.02
2019-01-28T22:39:47.738Z,96.92
2019-01-28T22:42:21.455Z,96.90
2019-01-28T22:44:48.047Z,97.12
2019-01-28T22:47:17.378Z,97.39
2019-01-28T22:49:46.717Z,97.39
2019-01-28T22:52:16.022Z,97.54
2019-01-28T22:54:45.374Z,97.21
2019-01-28T22:57:14.745Z,96.93
2019-01-28T22:59:44.232Z,97.09
2019-01-28T23:02:13.626Z,97.34
2019-01-28T23:04:43.007Z,97.06
2019-01-28T23:07:12.307Z,96.55
2019-01-28T23:09:41.711Z,96.05
2019-01-28T23:12:10.996Z,96.33
2019-01-28T23:14:40.369Z,96.25
2019-01-28T23:17:09.660Z,96.09
2019-01-28T23:19:39.198Z,96.15
2019-01-28T23:22:16.029Z,96.27
2019-01-28T23:24:39.605Z,96.30
2019-01-28T23:27:09.117Z,96.38
2019-01-28T23:29:57.373Z,96.22
2019-01-28T23:32:26.724Z,96.13
2019-01-28T23:34:56.015Z,96.46
2019-01-28T23:37:25.400Z,96.33
2019-01-28T23:39:54.686Z,96.03
2019-01-28T23:42:24.247Z,95.88
2019-01-28T23:44:53.614Z,95.93
2019-01-28T23:47:22.977Z,96.02
2019-01-28T23:49:52.268Z,95.86
2019-01-28T23:52:24.943Z,95.83
2019-01-28T23:54:52.982Z,95.91
2019-01-28T23:57:22.399Z,95.46
2019-01-28T23:59:51.762Z,95.64
